sensor_id;sensor_type;location;lat;lon;timestamp;temperature;humidity
9385;DHT22;4732;49.340;10.886;2023-07-08T03:03:31;13.60;99.90
9385;DHT22;4732;49.340;10.886;2023-07-08T03:05:59;13.50;99.90
9385;DHT22;4732;49.340;10.886;2023-07-08T03:08:26;13.50;99.90
9385;DHT22;4732;49.340;10.886;2023-07-08T03:10:57;13.20;99.90
9385;DHT22;4732;49.340;10.886;2023-07-08T03:13:23;13.10;99.90
9385;DHT22;4732;49.340;10.886;2023-07-08T03:15:49;13.10;99.90
9385;DHT22;4732;49.340;10.886;2023-07-08T03:18:19;13.10;99.90
9385;DHT22;4732;49.340;10.886;2023-07-08T03:20:48;13.10;99.90
9385;DHT22;4732;49.340;10.886;2023-07-08T03:23:13;13.10;99.90
9385;DHT22;4732;49.340;10.886;2023-07-08T03:25:39;13.10;99.90
9385;DHT22;4732;49.340;10.886;2023-07-08T03:28:07;13.00;99.90
9385;DHT22;4732;49.340;10.886;2023-07-08T03:30:38;12.90;99.90
9385;DHT22;4732;49.340;10.886;2023-07-08T03:33:03;13.00;99.90
9385;DHT22;4732;49.340;10.886;2023-07-08T03:35:29;12.90;99.90
9385;DHT22;4732;49.340;10.886;2023-07-08T03:37:55;12.80;99.90
9385;DHT22;4732;49.340;10.886;2023-07-08T03:40:20;12.80;99.90
9385;DHT22;4732;49.340;10.886;2023-07-08T03:42:46;12.80;99.90
9385;DHT22;4732;49.340;10.886;2023-07-08T03:45:11;12.80;99.90
9385;DHT22;4732;49.340;10.886;2023-07-08T03:47:37;12.80;99.90
9385;DHT22;4732;49.340;10.886;2023-07-08T03:50:03;12.80;99.90
9385;DHT22;4732;49.340;10.886;2023-07-08T03:52:28;12.80;99.90
9385;DHT22;4732;49.340;10.886;2023-07-08T03:54:54;12.90;99.90
9385;DHT22;4732;49.340;10.886;2023-07-08T03:57:19;12.90;99.90
9385;DHT22;4732;49.340;10.886;2023-07-08T03:59:46;13.00;99.90
9385;DHT22;4732;49.340;10.886;2023-07-08T04:02:11;13.00;99.90
9385;DHT22;4732;49.340;10.886;2023-07-08T04:04:37;13.10;99.90
9385;DHT22;4732;49.340;10.886;2023-07-08T04:07:06;13.20;99.90
9385;DHT22;4732;49.340;10.886;2023-07-08T04:09:31;13.10;99.90
9385;DHT22;4732;49.340;10.886;2023-07-08T04:11:57;13.20;99.90
9385;DHT22;4732;49.340;10.886;2023-07-08T04:14:23;13.20;99.90
9385;DHT22;4732;49.340;10.886;2023-07-08T04:16:58;13.20;99.90
9385;DHT22;4732;49.340;10.886;2023-07-08T04:19:25;13.20;99.90
9385;DHT22;4732;49.340;10.886;2023-07-08T04:21:52;13.30;99.90
9385;DHT22;4732;49.340;10.886;2023-07-08T04:24:18;13.40;99.90
9385;DHT22;4732;49.340;10.886;2023-07-08T04:26:46;13.60;99.90
9385;DHT22;4732;49.340;10.886;2023-07-08T04:29:16;13.70;99.90
9385;DHT22;4732;49.340;10.886;2023-07-08T04:31:42;13.70;99.90
9385;DHT22;4732;49.340;10.886;2023-07-08T04:34:08;13.80;99.90
9385;DHT22;4732;49.340;10.886;2023-07-08T04:36:34;13.90;99.90
9385;DHT22;4732;49.340;10.886;2023-07-08T04:39:01;14.00;99.90
9385;DHT22;4732;49.340;10.886;2023-07-08T04:41:28;14.20;99.90
9385;DHT22;4732;49.340;10.886;2023-07-08T04:43:53;14.40;99.90
9385;DHT22;4732;49.340;10.886;2023-07-08T04:46:27;14.50;99.90
9385;DHT22;4732;49.340;10.886;2023-07-08T04:48:53;14.70;99.90
9385;DHT22;4732;49.340;10.886;2023-07-08T04:51:19;14.80;99.90
9385;DHT22;4732;49.340;10.886;2023-07-08T04:53:44;14.90;99.90
9385;DHT22;4732;49.340;10.886;2023-07-08T04:56:10;15.00;99.90
9385;DHT22;4732;49.340;10.886;2023-07-08T04:58:35;15.20;99.90
9385;DHT22;4732;49.340;10.886;2023-07-08T05:01:01;15.30;99.90
9385;DHT22;4732;49.340;10.886;2023-07-08T05:03:27;15.50;99.90
9385;DHT22;4732;49.340;10.886;2023-07-08T05:05:52;15.60;99.90
9385;DHT22;4732;49.340;10.886;2023-07-08T05:08:18;15.70;99.90
9385;DHT22;4732;49.340;10.886;2023-07-08T05:10:43;15.90;99.90
9385;DHT22;4732;49.340;10.886;2023-07-08T05:13:09;16.00;99.90
9385;DHT22;4732;49.340;10.886;2023-07-08T05:15:35;16.10;99.90
9385;DHT22;4732;49.340;10.886;2023-07-08T05:18:01;16.20;99.90
9385;DHT22;4732;49.340;10.886;2023-07-08T05:20:27;16.30;99.90
9385;DHT22;4732;49.340;10.886;2023-07-08T05:22:53;16.40;99.90
9385;DHT22;4732;49.340;10.886;2023-07-08T05:25:19;16.60;99.90
9385;DHT22;4732;49.340;10.886;2023-07-08T05:27:46;16.70;99.90
9385;DHT22;4732;49.340;10.886;2023-07-08T05:30:15;16.90;99.90
9385;DHT22;4732;49.340;10.886;2023-07-08T05:32:41;17.00;99.90
9385;DHT22;4732;49.340;10.886;2023-07-08T05:35:07;17.20;99.90
9385;DHT22;4732;49.340;10.886;2023-07-08T05:37:33;17.30;99.90
9385;DHT22;4732;49.340;10.886;2023-07-08T05:39:58;17.50;99.90
9385;DHT22;4732;49.340;10.886;2023-07-08T05:42:27;17.60;99.90
9385;DHT22;4732;49.340;10.886;2023-07-08T05:44:53;17.80;99.90
9385;DHT22;4732;49.340;10.886;2023-07-08T05:47:20;17.90;99.90
9385;DHT22;4732;49.340;10.886;2023-07-08T05:49:47;18.10;99.90
9385;DHT22;4732;49.340;10.886;2023-07-08T05:52:13;18.30;99.90
9385;DHT22;4732;49.340;10.886;2023-07-08T05:54:39;18.40;99.90
9385;DHT22;4732;49.340;10.886;2023-07-08T05:57:06;18.60;99.90
9385;DHT22;4732;49.340;10.886;2023-07-08T05:59:33;18.70;99.90
9385;DHT22;4732;49.340;10.886;2023-07-08T06:01:59;18.90;99.90
9385;DHT22;4732;49.340;10.886;2023-07-08T06:04:25;19.10;99.90
9385;DHT22;4732;49.340;10.886;2023-07-08T06:06:50;19.20;99.90
9385;DHT22;4732;49.340;10.886;2023-07-08T06:09:16;19.40;99.90
9385;DHT22;4732;49.340;10.886;2023-07-08T06:11:41;19.60;99.90
9385;DHT22;4732;49.340;10.886;2023-07-08T06:14:07;19.80;99.90
9385;DHT22;4732;49.340;10.886;2023-07-08T06:16:33;20.00;99.90
9385;DHT22;4732;49.340;10.886;2023-07-08T06:19:00;20.10;99.90
9385;DHT22;4732;49.340;10.886;2023-07-08T06:21:26;20.30;99.90
9385;DHT22;4732;49.340;10.886;2023-07-08T06:23:51;20.50;99.90
9385;DHT22;4732;49.340;10.886;2023-07-08T06:26:17;20.60;99.90
9385;DHT22;4732;49.340;10.886;2023-07-08T06:28:43;20.80;99.90
9385;DHT22;4732;49.340;10.886;2023-07-08T06:31:08;20.90;99.90
9385;DHT22;4732;49.340;10.886;2023-07-08T06:33:34;21.20;99.90
9385;DHT22;4732;49.340;10.886;2023-07-08T06:36:00;21.30;99.90
9385;DHT22;4732;49.340;10.886;2023-07-08T06:38:25;21.40;99.90
9385;DHT22;4732;49.340;10.886;2023-07-08T06:40:51;21.60;99.90
9385;DHT22;4732;49.340;10.886;2023-07-08T06:43:16;21.80;99.90
9385;DHT22;4732;49.340;10.886;2023-07-08T06:45:43;21.90;99.90
9385;DHT22;4732;49.340;10.886;2023-07-08T06:48:09;22.10;99.90
9385;DHT22;4732;49.340;10.886;2023-07-08T06:50:34;22.20;99.90
9385;DHT22;4732;49.340;10.886;2023-07-08T06:53:00;22.30;99.90
9385;DHT22;4732;49.340;10.886;2023-07-08T06:55:26;22.50;99.90
9385;DHT22;4732;49.340;10.886;2023-07-08T06:57:51;22.60;99.90
9385;DHT22;4732;49.340;10.886;2023-07-08T07:00:17;22.80;99.90
9385;DHT22;4732;49.340;10.886;2023-07-08T07:02:43;22.90;99.90
9385;DHT22;4732;49.340;10.886;2023-07-08T07:05:09;23.00;99.90
9385;DHT22;4732;49.340;10.886;2023-07-08T07:07:34;23.10;99.90
9385;DHT22;4732;49.340;10.886;2023-07-08T07:10:00;23.30;99.90
9385;DHT22;4732;49.340;10.886;2023-07-08T07:12:26;23.40;99.90
9385;DHT22;4732;49.340;10.886;2023-07-08T07:14:52;23.50;99.90
9385;DHT22;4732;49.340;10.886;2023-07-08T07:17:22;23.70;99.90
9385;DHT22;4732;49.340;10.886;2023-07-08T07:19:48;23.70;99.90
9385;DHT22;4732;49.340;10.886;2023-07-08T07:22:14;23.80;99.90
9385;DHT22;4732;49.340;10.886;2023-07-08T07:24:40;23.90;99.90
9385;DHT22;4732;49.340;10.886;2023-07-08T07:27:06;24.10;99.90
9385;DHT22;4732;49.340;10.886;2023-07-08T07:29:53;24.20;99.90
9385;DHT22;4732;49.340;10.886;2023-07-08T07:32:22;24.30;99.90
9385;DHT22;4732;49.340;10.886;2023-07-08T07:34:49;24.40;99.90
9385;DHT22;4732;49.340;10.886;2023-07-08T07:37:17;24.60;99.90
9385;DHT22;4732;49.340;10.886;2023-07-08T07:39:43;24.70;99.90
9385;DHT22;4732;49.340;10.886;2023-07-08T07:42:09;24.80;99.90
9385;DHT22;4732;49.340;10.886;2023-07-08T07:44:36;24.90;99.90
9385;DHT22;4732;49.340;10.886;2023-07-08T07:47:02;24.90;99.90
9385;DHT22;4732;49.340;10.886;2023-07-08T07:49:28;25.00;99.90
9385;DHT22;4732;49.340;10.886;2023-07-08T07:51:54;25.20;99.90
9385;DHT22;4732;49.340;10.886;2023-07-08T07:54:20;25.20;99.70
9385;DHT22;4732;49.340;10.886;2023-07-08T07:56:46;25.30;99.90
9385;DHT22;4732;49.340;10.886;2023-07-08T07:59:11;25.50;99.90
9385;DHT22;4732;49.340;10.886;2023-07-08T08:01:37;25.60;99.60
9385;DHT22;4732;49.340;10.886;2023-07-08T08:04:04;25.70;99.80
9385;DHT22;4732;49.340;10.886;2023-07-08T08:06:29;25.80;98.80
9385;DHT22;4732;49.340;10.886;2023-07-08T08:08:55;25.80;98.70
9385;DHT22;4732;49.340;10.886;2023-07-08T08:11:22;25.90;99.30
9385;DHT22;4732;49.340;10.886;2023-07-08T08:13:47;25.90;98.90
9385;DHT22;4732;49.340;10.886;2023-07-08T08:16:13;26.00;98.80
9385;DHT22;4732;49.340;10.886;2023-07-08T08:18:38;26.00;98.80
9385;DHT22;4732;49.340;10.886;2023-07-08T08:21:04;26.10;98.30
9385;DHT22;4732;49.340;10.886;2023-07-08T08:23:30;26.30;98.60
9385;DHT22;4732;49.340;10.886;2023-07-08T08:25:55;26.50;97.70
9385;DHT22;4732;49.340;10.886;2023-07-08T08:28:21;26.50;97.00
9385;DHT22;4732;49.340;10.886;2023-07-08T08:30:50;26.60;96.40
9385;DHT22;4732;49.340;10.886;2023-07-08T08:33:17;26.70;96.90
9385;DHT22;4732;49.340;10.886;2023-07-08T08:35:43;26.90;96.20
9385;DHT22;4732;49.340;10.886;2023-07-08T08:38:09;27.00;94.40
9385;DHT22;4732;49.340;10.886;2023-07-08T08:40:35;27.10;93.50
9385;DHT22;4732;49.340;10.886;2023-07-08T08:43:03;27.20;93.60
9385;DHT22;4732;49.340;10.886;2023-07-08T08:45:34;27.30;92.50
9385;DHT22;4732;49.340;10.886;2023-07-08T08:48:04;27.30;92.80
9385;DHT22;4732;49.340;10.886;2023-07-08T08:50:49;27.40;93.40
9385;DHT22;4732;49.340;10.886;2023-07-08T08:53:17;27.50;92.40
9385;DHT22;4732;49.340;10.886;2023-07-08T08:55:46;27.70;91.30
9385;DHT22;4732;49.340;10.886;2023-07-08T08:58:29;27.80;90.50
9385;DHT22;4732;49.340;10.886;2023-07-08T09:01:01;27.80;90.40
9385;DHT22;4732;49.340;10.886;2023-07-08T09:03:48;27.90;90.20
9385;DHT22;4732;49.340;10.886;2023-07-08T09:06:21;28.10;90.40
9385;DHT22;4732;49.340;10.886;2023-07-08T09:08:50;28.30;90.20
9385;DHT22;4732;49.340;10.886;2023-07-08T09:14:26;28.50;90.40
9385;DHT22;4732;49.340;10.886;2023-07-08T09:16:57;28.70;86.60
9385;DHT22;4732;49.340;10.886;2023-07-08T09:19:26;28.90;84.70
9385;DHT22;4732;49.340;10.886;2023-07-08T09:22:11;28.90;83.50
9385;DHT22;4732;49.340;10.886;2023-07-08T09:30:31;29.10;85.50
9385;DHT22;4732;49.340;10.886;2023-07-08T09:32:58;29.30;82.90
9385;DHT22;4732;49.340;10.886;2023-07-08T09:35:29;29.40;81.90
9385;DHT22;4732;49.340;10.886;2023-07-08T09:38:12;29.40;83.50
9385;DHT22;4732;49.340;10.886;2023-07-08T09:40:38;29.60;78.30
9385;DHT22;4732;49.340;10.886;2023-07-08T09:45:48;29.80;80.40
9385;DHT22;4732;49.340;10.886;2023-07-08T09:48:27;29.80;74.90
9385;DHT22;4732;49.340;10.886;2023-07-08T09:50:56;29.90;73.90
9385;DHT22;4732;49.340;10.886;2023-07-08T09:53:21;30.10;76.50
9385;DHT22;4732;49.340;10.886;2023-07-08T09:55:47;30.20;76.40
9385;DHT22;4732;49.340;10.886;2023-07-08T09:58:25;30.20;74.00
9385;DHT22;4732;49.340;10.886;2023-07-08T10:00:58;30.20;72.50
9385;DHT22;4732;49.340;10.886;2023-07-08T10:03:31;30.40;73.50
9385;DHT22;4732;49.340;10.886;2023-07-08T10:05:58;30.60;70.90
9385;DHT22;4732;49.340;10.886;2023-07-08T10:08:40;30.80;72.80
9385;DHT22;4732;49.340;10.886;2023-07-08T10:11:28;30.90;73.40
9385;DHT22;4732;49.340;10.886;2023-07-08T10:13:57;31.00;69.50
9385;DHT22;4732;49.340;10.886;2023-07-08T10:16:27;30.90;70.20
9385;DHT22;4732;49.340;10.886;2023-07-08T10:18:53;30.80;70.60
9385;DHT22;4732;49.340;10.886;2023-07-08T10:21:33;30.80;69.30
9385;DHT22;4732;49.340;10.886;2023-07-08T10:26:52;30.70;70.10
9385;DHT22;4732;49.340;10.886;2023-07-08T10:29:39;30.60;70.90
9385;DHT22;4732;49.340;10.886;2023-07-08T10:32:35;30.70;70.70
9385;DHT22;4732;49.340;10.886;2023-07-08T10:35:12;30.70;69.50
9385;DHT22;4732;49.340;10.886;2023-07-08T10:37:52;30.70;70.20
9385;DHT22;4732;49.340;10.886;2023-07-08T10:43:15;30.50;72.80
9385;DHT22;4732;49.340;10.886;2023-07-08T10:51:30;30.10;71.00
9385;DHT22;4732;49.340;10.886;2023-07-08T10:54:16;30.10;75.60
9385;DHT22;4732;49.340;10.886;2023-07-08T10:59:53;29.90;78.40
9385;DHT22;4732;49.340;10.886;2023-07-08T11:05:28;29.60;78.90
9385;DHT22;4732;49.340;10.886;2023-07-08T11:08:27;29.60;77.90
9385;DHT22;4732;49.340;10.886;2023-07-08T11:13:28;29.50;78.30
9385;DHT22;4732;49.340;10.886;2023-07-08T11:21:08;30.10;79.90
9385;DHT22;4732;49.340;10.886;2023-07-08T11:24:13;30.10;76.90
9385;DHT22;4732;49.340;10.886;2023-07-08T11:26:57;30.20;77.70
9385;DHT22;4732;49.340;10.886;2023-07-08T11:32:14;31.20;76.80
9385;DHT22;4732;49.340;10.886;2023-07-08T11:34:42;31.30;73.50
9385;DHT22;4732;49.340;10.886;2023-07-08T11:37:10;31.20;73.10
9385;DHT22;4732;49.340;10.886;2023-07-08T11:39:43;31.60;70.70
9385;DHT22;4732;49.340;10.886;2023-07-08T11:42:46;31.90;71.00
9385;DHT22;4732;49.340;10.886;2023-07-08T11:45:26;32.40;70.70
9385;DHT22;4732;49.340;10.886;2023-07-08T11:47:53;32.70;67.50
9385;DHT22;4732;49.340;10.886;2023-07-08T11:50:24;32.70;67.60
9385;DHT22;4732;49.340;10.886;2023-07-08T11:52:53;32.70;67.70
9385;DHT22;4732;49.340;10.886;2023-07-08T11:55:26;33.00;69.00
9385;DHT22;4732;49.340;10.886;2023-07-08T11:57:54;32.90;65.90
9385;DHT22;4732;49.340;10.886;2023-07-08T12:00:24;32.80;66.00
9385;DHT22;4732;49.340;10.886;2023-07-08T12:02:57;32.90;65.10
9385;DHT22;4732;49.340;10.886;2023-07-08T12:05:35;32.80;64.70
9385;DHT22;4732;49.340;10.886;2023-07-08T12:08:03;33.10;64.50
9385;DHT22;4732;49.340;10.886;2023-07-08T12:10:51;33.20;62.20
9385;DHT22;4732;49.340;10.886;2023-07-08T12:13:21;33.20;63.10
9385;DHT22;4732;49.340;10.886;2023-07-08T12:15:47;33.10;64.90
9385;DHT22;4732;49.340;10.886;2023-07-08T12:18:25;33.40;62.00
9385;DHT22;4732;49.340;10.886;2023-07-08T12:20:56;33.20;62.90
9385;DHT22;4732;49.340;10.886;2023-07-08T12:23:24;33.10;63.50
9385;DHT22;4732;49.340;10.886;2023-07-08T12:25:51;33.40;61.80
9385;DHT22;4732;49.340;10.886;2023-07-08T12:28:18;33.50;62.00
9385;DHT22;4732;49.340;10.886;2023-07-08T12:30:45;33.90;62.90
9385;DHT22;4732;49.340;10.886;2023-07-08T12:35:51;33.80;59.50
9385;DHT22;4732;49.340;10.886;2023-07-08T12:38:21;33.40;60.90
9385;DHT22;4732;49.340;10.886;2023-07-08T12:40:50;33.20;62.80
9385;DHT22;4732;49.340;10.886;2023-07-08T12:43:16;33.10;64.80
9385;DHT22;4732;49.340;10.886;2023-07-08T12:45:43;33.00;60.90
9385;DHT22;4732;49.340;10.886;2023-07-08T12:48:09;32.80;60.10
9385;DHT22;4732;49.340;10.886;2023-07-08T12:50:35;32.60;62.10
9385;DHT22;4732;49.340;10.886;2023-07-08T12:53:03;32.60;63.40
9385;DHT22;4732;49.340;10.886;2023-07-08T12:55:38;33.00;60.60
9385;DHT22;4732;49.340;10.886;2023-07-08T12:58:04;33.20;60.20
9385;DHT22;4732;49.340;10.886;2023-07-08T13:00:33;33.70;60.00
9385;DHT22;4732;49.340;10.886;2023-07-08T13:05:51;34.30;57.00
9385;DHT22;4732;49.340;10.886;2023-07-08T13:08:21;34.70;57.40
9385;DHT22;4732;49.340;10.886;2023-07-08T13:10:59;34.80;56.70
9385;DHT22;4732;49.340;10.886;2023-07-08T13:13:57;34.60;57.20
9385;DHT22;4732;49.340;10.886;2023-07-08T13:16:31;34.70;58.40
9385;DHT22;4732;49.340;10.886;2023-07-08T13:18:58;34.80;56.50
9385;DHT22;4732;49.340;10.886;2023-07-08T13:21:24;34.80;55.90
9385;DHT22;4732;49.340;10.886;2023-07-08T13:23:50;34.60;55.10
9385;DHT22;4732;49.340;10.886;2023-07-08T13:26:19;34.80;57.00
9385;DHT22;4732;49.340;10.886;2023-07-08T13:28:46;35.20;55.00
9385;DHT22;4732;49.340;10.886;2023-07-08T13:38:40;35.50;55.30
9385;DHT22;4732;49.340;10.886;2023-07-08T13:41:07;35.70;53.80
9385;DHT22;4732;49.340;10.886;2023-07-08T13:43:36;35.70;55.20
9385;DHT22;4732;49.340;10.886;2023-07-08T13:46:03;35.70;53.50
9385;DHT22;4732;49.340;10.886;2023-07-08T13:48:41;35.80;54.80
9385;DHT22;4732;49.340;10.886;2023-07-08T13:51:18;35.80;56.10
9385;DHT22;4732;49.340;10.886;2023-07-08T13:53:53;35.90;55.10
9385;DHT22;4732;49.340;10.886;2023-07-08T13:56:30;36.00;54.00
9385;DHT22;4732;49.340;10.886;2023-07-08T13:59:05;35.90;54.60
9385;DHT22;4732;49.340;10.886;2023-07-08T14:01:34;36.00;53.90
9385;DHT22;4732;49.340;10.886;2023-07-08T14:04:00;36.00;55.30
9385;DHT22;4732;49.340;10.886;2023-07-08T14:06:34;36.20;53.80
9385;DHT22;4732;49.340;10.886;2023-07-08T14:09:15;36.20;54.30
9385;DHT22;4732;49.340;10.886;2023-07-08T14:11:42;35.80;53.70
9385;DHT22;4732;49.340;10.886;2023-07-08T14:14:09;35.40;53.60
9385;DHT22;4732;49.340;10.886;2023-07-08T14:16:37;35.50;55.80
9385;DHT22;4732;49.340;10.886;2023-07-08T14:19:07;35.90;55.80
9385;DHT22;4732;49.340;10.886;2023-07-08T14:22:01;35.80;53.70
9385;DHT22;4732;49.340;10.886;2023-07-08T14:24:39;35.30;54.40
9385;DHT22;4732;49.340;10.886;2023-07-08T14:27:07;35.30;55.00
9385;DHT22;4732;49.340;10.886;2023-07-08T14:29:38;35.50;53.60
9385;DHT22;4732;49.340;10.886;2023-07-08T14:32:04;35.40;55.20
9385;DHT22;4732;49.340;10.886;2023-07-08T14:34:36;35.00;54.40
9385;DHT22;4732;49.340;10.886;2023-07-08T14:37:18;34.60;55.10
9385;DHT22;4732;49.340;10.886;2023-07-08T14:39:44;34.90;56.40
9385;DHT22;4732;49.340;10.886;2023-07-08T14:42:14;35.00;55.30
9385;DHT22;4732;49.340;10.886;2023-07-08T14:44:45;35.10;55.00
9385;DHT22;4732;49.340;10.886;2023-07-08T14:47:16;35.00;55.30
9385;DHT22;4732;49.340;10.886;2023-07-08T14:49:45;35.20;55.20
9385;DHT22;4732;49.340;10.886;2023-07-08T14:52:12;35.60;54.90
9385;DHT22;4732;49.340;10.886;2023-07-08T14:54:38;35.70;57.00
9385;DHT22;4732;49.340;10.886;2023-07-08T14:57:05;35.90;54.60
9385;DHT22;4732;49.340;10.886;2023-07-08T14:59:32;36.30;54.60
9385;DHT22;4732;49.340;10.886;2023-07-08T15:01:59;36.60;55.50
9385;DHT22;4732;49.340;10.886;2023-07-08T15:04:25;36.20;53.40
9385;DHT22;4732;49.340;10.886;2023-07-08T15:06:52;36.30;54.00
9385;DHT22;4732;49.340;10.886;2023-07-08T15:09:18;36.00;54.20
9385;DHT22;4732;49.340;10.886;2023-07-08T15:11:45;36.10;53.70
9385;DHT22;4732;49.340;10.886;2023-07-08T15:14:20;36.00;53.20
9385;DHT22;4732;49.340;10.886;2023-07-08T15:16:46;36.10;53.00
9385;DHT22;4732;49.340;10.886;2023-07-08T15:19:12;36.20;52.90
9385;DHT22;4732;49.340;10.886;2023-07-08T15:21:38;35.90;53.30
9385;DHT22;4732;49.340;10.886;2023-07-08T15:24:12;36.20;54.10
9385;DHT22;4732;49.340;10.886;2023-07-08T15:26:43;36.30;54.00
9385;DHT22;4732;49.340;10.886;2023-07-08T15:29:21;35.80;53.00
9385;DHT22;4732;49.340;10.886;2023-07-08T15:31:47;35.20;54.20
9385;DHT22;4732;49.340;10.886;2023-07-08T15:34:19;34.90;55.00
9385;DHT22;4732;49.340;10.886;2023-07-08T15:36:45;34.90;53.60
9385;DHT22;4732;49.340;10.886;2023-07-08T15:39:11;34.60;54.50
9385;DHT22;4732;49.340;10.886;2023-07-08T15:41:39;34.40;55.70
9385;DHT22;4732;49.340;10.886;2023-07-08T15:44:08;34.50;55.80
9385;DHT22;4732;49.340;10.886;2023-07-08T15:46:37;34.90;56.90
9385;DHT22;4732;49.340;10.886;2023-07-08T15:49:14;35.10;55.70
9385;DHT22;4732;49.340;10.886;2023-07-08T15:51:40;35.00;54.50
9385;DHT22;4732;49.340;10.886;2023-07-08T15:54:06;35.00;55.90
9385;DHT22;4732;49.340;10.886;2023-07-08T15:56:32;35.00;54.90
9385;DHT22;4732;49.340;10.886;2023-07-08T15:58:59;35.20;55.30
9385;DHT22;4732;49.340;10.886;2023-07-08T16:01:25;35.30;55.20
9385;DHT22;4732;49.340;10.886;2023-07-08T16:03:51;35.60;54.40
9385;DHT22;4732;49.340;10.886;2023-07-08T16:06:18;35.70;54.30
9385;DHT22;4732;49.340;10.886;2023-07-08T16:08:44;35.70;54.40
9385;DHT22;4732;49.340;10.886;2023-07-08T16:11:20;35.80;53.60
9385;DHT22;4732;49.340;10.886;2023-07-08T16:13:48;35.60;53.30
9385;DHT22;4732;49.340;10.886;2023-07-08T16:16:14;35.50;53.40
9385;DHT22;4732;49.340;10.886;2023-07-08T16:18:40;35.40;53.70
9385;DHT22;4732;49.340;10.886;2023-07-08T16:21:06;35.40;53.40
9385;DHT22;4732;49.340;10.886;2023-07-08T16:23:38;35.50;54.60
9385;DHT22;4732;49.340;10.886;2023-07-08T16:26:15;35.50;53.00
9385;DHT22;4732;49.340;10.886;2023-07-08T16:28:43;35.30;53.70
9385;DHT22;4732;49.340;10.886;2023-07-08T16:31:11;35.20;54.30
9385;DHT22;4732;49.340;10.886;2023-07-08T16:33:37;35.20;54.70
9385;DHT22;4732;49.340;10.886;2023-07-08T16:36:03;35.20;54.30
9385;DHT22;4732;49.340;10.886;2023-07-08T16:38:29;35.20;53.90
9385;DHT22;4732;49.340;10.886;2023-07-08T16:40:54;35.20;55.50
9385;DHT22;4732;49.340;10.886;2023-07-08T16:43:26;35.20;56.20
9385;DHT22;4732;49.340;10.886;2023-07-08T16:45:53;35.10;55.80
9385;DHT22;4732;49.340;10.886;2023-07-08T16:48:18;35.10;55.00
9385;DHT22;4732;49.340;10.886;2023-07-08T16:50:44;35.10;54.10
9385;DHT22;4732;49.340;10.886;2023-07-08T16:53:11;35.00;54.30
9385;DHT22;4732;49.340;10.886;2023-07-08T16:55:37;34.90;53.40
9385;DHT22;4732;49.340;10.886;2023-07-08T16:58:02;34.70;54.60
9385;DHT22;4732;49.340;10.886;2023-07-08T17:00:28;34.60;54.70
9385;DHT22;4732;49.340;10.886;2023-07-08T17:02:54;34.50;55.90
9385;DHT22;4732;49.340;10.886;2023-07-08T17:05:24;34.30;56.10
9385;DHT22;4732;49.340;10.886;2023-07-08T17:07:52;34.00;57.30
9385;DHT22;4732;49.340;10.886;2023-07-08T17:10:18;33.40;56.90
9385;DHT22;4732;49.340;10.886;2023-07-08T17:12:44;33.00;57.10
9385;DHT22;4732;49.340;10.886;2023-07-08T17:15:10;32.70;57.30
9385;DHT22;4732;49.340;10.886;2023-07-08T17:17:37;32.60;57.90
9385;DHT22;4732;49.340;10.886;2023-07-08T17:20:24;32.30;58.30
9385;DHT22;4732;49.340;10.886;2023-07-08T17:22:51;32.20;59.00
9385;DHT22;4732;49.340;10.886;2023-07-08T17:25:20;32.00;59.00
9385;DHT22;4732;49.340;10.886;2023-07-08T17:27:47;31.80;59.20
9385;DHT22;4732;49.340;10.886;2023-07-08T17:30:15;31.70;59.90
9385;DHT22;4732;49.340;10.886;2023-07-08T17:32:41;31.70;59.80
9385;DHT22;4732;49.340;10.886;2023-07-08T17:35:12;31.50;59.90
9385;DHT22;4732;49.340;10.886;2023-07-08T17:37:39;31.40;60.10
9385;DHT22;4732;49.340;10.886;2023-07-08T17:40:15;31.30;59.80
9385;DHT22;4732;49.340;10.886;2023-07-08T17:42:41;31.20;60.10
9385;DHT22;4732;49.340;10.886;2023-07-08T17:45:10;31.10;60.20
9385;DHT22;4732;49.340;10.886;2023-07-08T17:47:36;31.10;60.80
9385;DHT22;4732;49.340;10.886;2023-07-08T17:50:13;31.00;60.70
9385;DHT22;4732;49.340;10.886;2023-07-08T17:52:38;30.90;61.40
9385;DHT22;4732;49.340;10.886;2023-07-08T17:55:04;30.80;61.20
9385;DHT22;4732;49.340;10.886;2023-07-08T17:57:30;30.70;62.20
9385;DHT22;4732;49.340;10.886;2023-07-08T17:59:55;30.70;61.70
9385;DHT22;4732;49.340;10.886;2023-07-08T18:02:21;30.80;61.60
9385;DHT22;4732;49.340;10.886;2023-07-08T18:04:47;30.70;61.40
9385;DHT22;4732;49.340;10.886;2023-07-08T18:07:13;30.70;60.70
9385;DHT22;4732;49.340;10.886;2023-07-08T18:09:38;30.60;62.10
9385;DHT22;4732;49.340;10.886;2023-07-08T18:12:04;30.50;62.60
9385;DHT22;4732;49.340;10.886;2023-07-08T18:14:30;30.40;62.90
9385;DHT22;4732;49.340;10.886;2023-07-08T18:16:56;30.30;62.80
9385;DHT22;4732;49.340;10.886;2023-07-08T18:19:21;30.20;63.90
9385;DHT22;4732;49.340;10.886;2023-07-08T18:21:47;30.10;63.20
9385;DHT22;4732;49.340;10.886;2023-07-08T18:24:13;30.00;63.60
9385;DHT22;4732;49.340;10.886;2023-07-08T18:26:40;29.90;64.90
9385;DHT22;4732;49.340;10.886;2023-07-08T18:29:06;29.70;66.20
9385;DHT22;4732;49.340;10.886;2023-07-08T18:31:34;29.60;66.00
9385;DHT22;4732;49.340;10.886;2023-07-08T18:34:03;29.50;66.80
9385;DHT22;4732;49.340;10.886;2023-07-08T18:36:31;29.30;67.00
9385;DHT22;4732;49.340;10.886;2023-07-08T18:38:57;29.20;67.50
9385;DHT22;4732;49.340;10.886;2023-07-08T18:41:26;29.10;68.20
9385;DHT22;4732;49.340;10.886;2023-07-08T18:43:52;29.00;69.90
9385;DHT22;4732;49.340;10.886;2023-07-08T18:46:18;28.80;71.60
9385;DHT22;4732;49.340;10.886;2023-07-08T18:48:44;28.50;73.10
9385;DHT22;4732;49.340;10.886;2023-07-08T18:51:23;28.30;74.30
9385;DHT22;4732;49.340;10.886;2023-07-08T18:53:49;28.00;74.50
9385;DHT22;4732;49.340;10.886;2023-07-08T18:56:16;27.80;75.30
9385;DHT22;4732;49.340;10.886;2023-07-08T18:58:45;27.60;76.50
9385;DHT22;4732;49.340;10.886;2023-07-08T19:01:14;27.40;78.10
9385;DHT22;4732;49.340;10.886;2023-07-08T19:03:41;27.20;77.10
9385;DHT22;4732;49.340;10.886;2023-07-08T19:06:10;27.10;78.60
9385;DHT22;4732;49.340;10.886;2023-07-08T19:08:36;26.80;79.20
9385;DHT22;4732;49.340;10.886;2023-07-08T19:11:02;26.70;79.00
9385;DHT22;4732;49.340;10.886;2023-07-08T19:13:30;26.60;80.20
9385;DHT22;4732;49.340;10.886;2023-07-08T19:15:56;26.40;81.10
9385;DHT22;4732;49.340;10.886;2023-07-08T19:18:21;26.20;81.50
9385;DHT22;4732;49.340;10.886;2023-07-08T19:20:50;26.00;82.20
9385;DHT22;4732;49.340;10.886;2023-07-08T19:23:19;25.90;82.70
9385;DHT22;4732;49.340;10.886;2023-07-08T19:25:47;25.80;83.30
9385;DHT22;4732;49.340;10.886;2023-07-08T19:28:13;25.70;83.80
9385;DHT22;4732;49.340;10.886;2023-07-08T19:30:40;25.50;84.70
9385;DHT22;4732;49.340;10.886;2023-07-08T19:33:12;25.40;85.20
9385;DHT22;4732;49.340;10.886;2023-07-08T19:35:43;25.20;85.40
9385;DHT22;4732;49.340;10.886;2023-07-08T19:38:11;25.30;86.00
9385;DHT22;4732;49.340;10.886;2023-07-08T19:40:37;25.20;87.00
9385;DHT22;4732;49.340;10.886;2023-07-08T19:43:08;25.10;86.40
9385;DHT22;4732;49.340;10.886;2023-07-08T19:45:34;24.90;86.60
9385;DHT22;4732;49.340;10.886;2023-07-08T19:47:59;24.90;88.20
9385;DHT22;4732;49.340;10.886;2023-07-08T19:50:27;24.90;88.30